sensor_id;sensor_type;location;lat;lon;timestamp;pressure;altitude;pressure_sealevel;temperature;humidity
37238;BME280;23129;49.662;8.448;2023-03-23T00:02:26;99935.25;;;15.16;74.90
37238;BME280;23129;49.662;8.448;2023-03-23T00:04:53;99933.56;;;15.15;74.47
37238;BME280;23129;49.662;8.448;2023-03-23T00:07:23;99936.03;;;15.18;74.26
37238;BME280;23129;49.662;8.448;2023-03-23T00:09:54;99946.59;;;15.18;74.86
37238;BME280;23129;49.662;8.448;2023-03-23T00:12:22;99934.34;;;15.17;74.75
37238;BME280;23129;49.662;8.448;2023-03-23T00:14:55;99955.38;;;15.18;74.13
37238;BME280;23129;49.662;8.448;2023-03-23T00:17:22;99948.22;;;15.20;73.98
37238;BME280;23129;49.662;8.448;2023-03-23T00:19:51;99942.09;;;15.20;74.77
37238;BME280;23129;49.662;8.448;2023-03-23T00:22:19;99933.41;;;15.18;74.74
37238;BME280;23129;49.662;8.448;2023-03-23T00:24:48;99929.06;;;15.17;75.47
37238;BME280;23129;49.662;8.448;2023-03-23T00:27:17;99931.88;;;15.14;75.34
37238;BME280;23129;49.662;8.448;2023-03-23T00:29:44;99911.75;;;15.11;75.34
37238;BME280;23129;49.662;8.448;2023-03-23T00:32:13;99920.59;;;15.10;75.19
37238;BME280;23129;49.662;8.448;2023-03-23T00:34:42;99918.06;;;15.09;75.34
37238;BME280;23129;49.662;8.448;2023-03-23T00:37:12;99924.34;;;15.06;76.05
37238;BME280;23129;49.662;8.448;2023-03-23T00:39:43;99926.22;;;15.04;76.38
37238;BME280;23129;49.662;8.448;2023-03-23T00:42:13;99930.81;;;15.00;75.73
37238;BME280;23129;49.662;8.448;2023-03-23T00:44:42;99933.47;;;15.00;75.43
37238;BME280;23129;49.662;8.448;2023-03-23T00:47:11;99933.41;;;15.02;74.77
37238;BME280;23129;49.662;8.448;2023-03-23T00:49:39;99928.97;;;15.02;75.25
37238;BME280;23129;49.662;8.448;2023-03-23T00:52:07;99930.66;;;15.03;75.06
37238;BME280;23129;49.662;8.448;2023-03-23T00:54:34;99927.94;;;15.05;75.35
37238;BME280;23129;49.662;8.448;2023-03-23T00:57:04;99931.44;;;15.05;74.85
37238;BME280;23129;49.662;8.448;2023-03-23T00:59:33;99925.19;;;15.06;74.40
37238;BME280;23129;49.662;8.448;2023-03-23T01:02:02;99914.63;;;15.06;74.83
37238;BME280;23129;49.662;8.448;2023-03-23T01:04:29;99915.59;;;15.05;74.83
37238;BME280;23129;49.662;8.448;2023-03-23T01:06:57;99905.09;;;15.04;74.67
37238;BME280;23129;49.662;8.448;2023-03-23T01:09:26;99908.75;;;15.01;75.44
37238;BME280;23129;49.662;8.448;2023-03-23T01:11:54;99901.00;;;14.98;75.81
37238;BME280;23129;49.662;8.448;2023-03-23T01:14:22;99908.16;;;14.96;75.86
37238;BME280;23129;49.662;8.448;2023-03-23T01:16:52;99920.59;;;14.94;76.65
37238;BME280;23129;49.662;8.448;2023-03-23T01:19:20;99912.66;;;14.94;77.11
37238;BME280;23129;49.662;8.448;2023-03-23T01:21:47;99915.47;;;14.91;77.16
37238;BME280;23129;49.662;8.448;2023-03-23T01:24:15;99910.38;;;14.88;77.94
37238;BME280;23129;49.662;8.448;2023-03-23T01:26:42;99906.94;;;14.86;78.37
37238;BME280;23129;49.662;8.448;2023-03-23T01:29:10;99907.09;;;14.83;78.24
37238;BME280;23129;49.662;8.448;2023-03-23T01:31:37;99896.56;;;14.83;78.80
37238;BME280;23129;49.662;8.448;2023-03-23T01:34:08;99894.84;;;14.82;78.42
37238;BME280;23129;49.662;8.448;2023-03-23T01:36:37;99883.34;;;14.83;77.95
37238;BME280;23129;49.662;8.448;2023-03-23T01:39:05;99893.84;;;14.84;78.30
37238;BME280;23129;49.662;8.448;2023-03-23T01:41:35;99882.44;;;14.84;78.06
37238;BME280;23129;49.662;8.448;2023-03-23T01:47:33;99885.81;;;14.86;76.97
37238;BME280;23129;49.662;8.448;2023-03-23T01:50:02;99883.97;;;14.88;76.40
37238;BME280;23129;49.662;8.448;2023-03-23T01:52:30;99874.25;;;14.89;76.50
37238;BME280;23129;49.662;8.448;2023-03-23T01:55:02;99872.44;;;14.89;76.64
37238;BME280;23129;49.662;8.448;2023-03-23T01:57:31;99872.56;;;14.88;76.97
37238;BME280;23129;49.662;8.448;2023-03-23T02:00:04;99859.41;;;14.86;77.45
37238;BME280;23129;49.662;8.448;2023-03-23T02:02:41;99873.72;;;14.82;77.89
37238;BME280;23129;49.662;8.448;2023-03-23T02:05:15;99873.06;;;14.78;78.42
37238;BME280;23129;49.662;8.448;2023-03-23T02:07:46;99873.22;;;14.75;77.99
37238;BME280;23129;49.662;8.448;2023-03-23T02:10:15;99872.44;;;14.73;78.80
37238;BME280;23129;49.662;8.448;2023-03-23T02:12:43;99863.00;;;14.69;78.60
37238;BME280;23129;49.662;8.448;2023-03-23T02:15:12;99865.72;;;14.68;78.54
37238;BME280;23129;49.662;8.448;2023-03-23T02:17:47;99868.50;;;14.65;79.25
37238;BME280;23129;49.662;8.448;2023-03-23T02:20:33;99870.38;;;14.63;79.63
37238;BME280;23129;49.662;8.448;2023-03-23T02:26:24;99867.91;;;14.59;79.47
37238;BME280;23129;49.662;8.448;2023-03-23T02:29:29;99859.22;;;14.57;77.94
37238;BME280;23129;49.662;8.448;2023-03-23T02:32:16;99856.50;;;14.59;77.99
37238;BME280;23129;49.662;8.448;2023-03-23T02:34:50;99846.78;;;14.59;77.65
37238;BME280;23129;49.662;8.448;2023-03-23T02:37:23;99850.38;;;14.58;77.78
37238;BME280;23129;49.662;8.448;2023-03-23T02:39:56;99839.81;;;14.58;77.61
37238;BME280;23129;49.662;8.448;2023-03-23T02:42:29;99837.28;;;14.57;78.23
37238;BME280;23129;49.662;8.448;2023-03-23T02:44:59;99834.69;;;14.55;78.56
37238;BME280;23129;49.662;8.448;2023-03-23T02:47:30;99838.28;;;14.54;78.58
37238;BME280;23129;49.662;8.448;2023-03-23T02:50:00;99841.84;;;14.53;78.77
37238;BME280;23129;49.662;8.448;2023-03-23T02:52:31;99826.94;;;14.52;78.98
37238;BME280;23129;49.662;8.448;2023-03-23T02:55:00;99841.97;;;14.50;78.45
37238;BME280;23129;49.662;8.448;2023-03-23T02:57:29;99840.28;;;14.49;79.01
37238;BME280;23129;49.662;8.448;2023-03-23T03:00:00;99836.00;;;14.47;79.50
37238;BME280;23129;49.662;8.448;2023-03-23T03:02:33;99831.56;;;14.31;79.85
37238;BME280;23129;49.662;8.448;2023-03-23T03:05:12;99825.94;;;14.22;80.80
37238;BME280;23129;49.662;8.448;2023-03-23T03:07:57;99822.59;;;14.18;81.34
37238;BME280;23129;49.662;8.448;2023-03-23T03:10:31;99817.41;;;14.16;81.01
37238;BME280;23129;49.662;8.448;2023-03-23T03:13:04;99827.09;;;14.16;81.23
37238;BME280;23129;49.662;8.448;2023-03-23T03:15:43;99824.53;;;14.14;81.22
37238;BME280;23129;49.662;8.448;2023-03-23T03:18:18;99809.75;;;14.12;81.34
37238;BME280;23129;49.662;8.448;2023-03-23T03:20:53;99822.84;;;14.13;81.40
37238;BME280;23129;49.662;8.448;2023-03-23T03:23:23;99817.56;;;14.13;81.66
37238;BME280;23129;49.662;8.448;2023-03-23T03:25:56;99825.41;;;14.15;81.85
37238;BME280;23129;49.662;8.448;2023-03-23T03:28:37;99830.69;;;14.15;82.25
37238;BME280;23129;49.662;8.448;2023-03-23T03:31:06;99821.81;;;14.16;82.46
37238;BME280;23129;49.662;8.448;2023-03-23T03:33:33;99818.34;;;14.15;81.80
37238;BME280;23129;49.662;8.448;2023-03-23T03:36:05;99820.97;;;14.15;82.40
37238;BME280;23129;49.662;8.448;2023-03-23T03:38:42;99823.78;;;14.12;82.66
37238;BME280;23129;49.662;8.448;2023-03-23T03:41:10;99823.69;;;14.14;82.20
37238;BME280;23129;49.662;8.448;2023-03-23T03:43:37;99819.25;;;14.14;82.55
37238;BME280;23129;49.662;8.448;2023-03-23T03:46:05;99826.25;;;14.15;82.16
37238;BME280;23129;49.662;8.448;2023-03-23T03:48:33;99824.47;;;14.16;82.39
37238;BME280;23129;49.662;8.448;2023-03-23T03:51:02;99821.72;;;14.18;82.26
37238;BME280;23129;49.662;8.448;2023-03-23T03:53:32;99819.09;;;14.18;81.70
37238;BME280;23129;49.662;8.448;2023-03-23T03:56:00;99813.66;;;14.21;81.27
37238;BME280;23129;49.662;8.448;2023-03-23T03:58:34;99821.66;;;14.19;81.19
37238;BME280;23129;49.662;8.448;2023-03-23T04:01:21;99816.91;;;14.26;80.15
37238;BME280;23129;49.662;8.448;2023-03-23T04:03:51;99828.75;;;14.34;79.55
37238;BME280;23129;49.662;8.448;2023-03-23T04:06:29;99810.81;;;14.41;79.44
37238;BME280;23129;49.662;8.448;2023-03-23T04:09:00;99814.06;;;14.46;79.27
37238;BME280;23129;49.662;8.448;2023-03-23T04:11:32;99811.25;;;14.49;79.65
37238;BME280;23129;49.662;8.448;2023-03-23T04:14:19;99815.53;;;14.52;78.77
37238;BME280;23129;49.662;8.448;2023-03-23T04:16:48;99807.66;;;14.50;79.35
37238;BME280;23129;49.662;8.448;2023-03-23T04:19:23;99824.94;;;14.40;79.77
37238;BME280;23129;49.662;8.448;2023-03-23T04:21:51;99839.25;;;14.36;79.82
37238;BME280;23129;49.662;8.448;2023-03-23T04:24:19;99826.22;;;14.33;79.96
37238;BME280;23129;49.662;8.448;2023-03-23T04:26:49;99850.81;;;14.33;79.71
37238;BME280;23129;49.662;8.448;2023-03-23T04:29:24;99848.06;;;14.35;79.61
37238;BME280;23129;49.662;8.448;2023-03-23T04:32:31;99860.19;;;14.39;79.96
37238;BME280;23129;49.662;8.448;2023-03-23T04:34:59;99856.44;;;14.43;80.13
37238;BME280;23129;49.662;8.448;2023-03-23T04:37:35;99860.72;;;14.46;80.31
37238;BME280;23129;49.662;8.448;2023-03-23T04:40:06;99871.94;;;14.49;80.64
37238;BME280;23129;49.662;8.448;2023-03-23T04:42:39;99860.59;;;14.47;81.22
37238;BME280;23129;49.662;8.448;2023-03-23T04:45:32;99868.69;;;14.44;81.91
37238;BME280;23129;49.662;8.448;2023-03-23T04:48:00;99868.84;;;14.41;82.27
37238;BME280;23129;49.662;8.448;2023-03-23T04:50:42;99887.31;;;14.41;82.43
37238;BME280;23129;49.662;8.448;2023-03-23T04:53:21;99881.28;;;14.39;82.62
37238;BME280;23129;49.662;8.448;2023-03-23T04:55:49;99881.28;;;14.39;82.96
37238;BME280;23129;49.662;8.448;2023-03-23T04:58:19;99876.00;;;14.39;83.18
37238;BME280;23129;49.662;8.448;2023-03-23T05:01:06;99873.53;;;14.36;83.66
37238;BME280;23129;49.662;8.448;2023-03-23T05:03:41;99882.38;;;14.35;83.62
37238;BME280;23129;49.662;8.448;2023-03-23T05:06:10;99881.53;;;14.34;83.75
37238;BME280;23129;49.662;8.448;2023-03-23T05:08:39;99888.59;;;14.34;83.87
37238;BME280;23129;49.662;8.448;2023-03-23T05:11:07;99888.59;;;14.34;84.22
37238;BME280;23129;49.662;8.448;2023-03-23T05:13:38;99883.31;;;14.34;84.33
37238;BME280;23129;49.662;8.448;2023-03-23T05:16:07;99900.00;;;14.34;84.19
37238;BME280;23129;49.662;8.448;2023-03-23T05:18:38;99907.84;;;14.36;84.20
37238;BME280;23129;49.662;8.448;2023-03-23T05:21:08;99916.50;;;14.38;83.40
37238;BME280;23129;49.662;8.448;2023-03-23T05:23:40;99913.63;;;14.43;83.05
37238;BME280;23129;49.662;8.448;2023-03-23T05:26:16;99904.88;;;14.42;82.94
37238;BME280;23129;49.662;8.448;2023-03-23T05:28:44;99910.06;;;14.44;82.64
37238;BME280;23129;49.662;8.448;2023-03-23T05:31:17;99903.94;;;14.43;82.91
37238;BME280;23129;49.662;8.448;2023-03-23T05:33:45;99913.81;;;14.39;83.18
37238;BME280;23129;49.662;8.448;2023-03-23T05:36:28;99898.34;;;14.32;83.18
37238;BME280;23129;49.662;8.448;2023-03-23T05:39:12;99908.44;;;14.24;83.45
37238;BME280;23129;49.662;8.448;2023-03-23T05:41:59;99921.19;;;14.15;83.76
37238;BME280;23129;49.662;8.448;2023-03-23T05:44:37;99909.22;;;14.08;84.10
37238;BME280;23129;49.662;8.448;2023-03-23T05:47:05;99905.22;;;14.01;84.84
37238;BME280;23129;49.662;8.448;2023-03-23T05:49:34;99907.16;;;13.98;85.25
37238;BME280;23129;49.662;8.448;2023-03-23T05:52:04;99910.00;;;13.93;85.34
37238;BME280;23129;49.662;8.448;2023-03-23T05:54:33;99913.75;;;13.89;85.81
37238;BME280;23129;49.662;8.448;2023-03-23T05:57:02;99924.44;;;13.86;86.34
37238;BME280;23129;49.662;8.448;2023-03-23T05:59:43;99931.56;;;13.84;86.39
37238;BME280;23129;49.662;8.448;2023-03-23T06:02:16;99928.16;;;13.82;86.39
37238;BME280;23129;49.662;8.448;2023-03-23T06:04:44;99931.72;;;13.81;86.84
37238;BME280;23129;49.662;8.448;2023-03-23T06:07:21;99937.16;;;13.78;86.82
37238;BME280;23129;49.662;8.448;2023-03-23T06:10:00;99930.19;;;13.77;87.38
37238;BME280;23129;49.662;8.448;2023-03-23T06:12:36;99946.13;;;13.74;87.65
37238;BME280;23129;49.662;8.448;2023-03-23T06:15:16;99934.81;;;13.72;87.96
37238;BME280;23129;49.662;8.448;2023-03-23T06:18:17;99944.50;;;13.71;88.45
37238;BME280;23129;49.662;8.448;2023-03-23T06:21:07;99940.22;;;13.68;88.76
37238;BME280;23129;49.662;8.448;2023-03-23T06:23:52;99946.44;;;13.67;88.75
37238;BME280;23129;49.662;8.448;2023-03-23T06:26:25;99939.38;;;13.68;88.84
37238;BME280;23129;49.662;8.448;2023-03-23T06:28:57;99941.19;;;13.67;88.98
37238;BME280;23129;49.662;8.448;2023-03-23T06:31:27;99953.41;;;13.68;89.04
37238;BME280;23129;49.662;8.448;2023-03-23T06:33:55;99957.84;;;13.68;89.22
37238;BME280;23129;49.662;8.448;2023-03-23T06:36:43;99956.03;;;13.68;89.33
37238;BME280;23129;49.662;8.448;2023-03-23T06:39:16;99958.69;;;13.68;89.70
37238;BME280;23129;49.662;8.448;2023-03-23T06:41:52;99972.78;;;13.67;89.66
37238;BME280;23129;49.662;8.448;2023-03-23T06:44:20;99960.53;;;13.66;89.61
37238;BME280;23129;49.662;8.448;2023-03-23T06:46:48;99978.97;;;13.66;90.02
37238;BME280;23129;49.662;8.448;2023-03-23T06:49:19;99989.59;;;13.65;89.90
37238;BME280;23129;49.662;8.448;2023-03-23T06:51:53;99970.31;;;13.64;90.02
37238;BME280;23129;49.662;8.448;2023-03-23T06:54:22;99971.22;;;13.63;90.36
37238;BME280;23129;49.662;8.448;2023-03-23T06:56:51;99968.59;;;13.63;90.01
37238;BME280;23129;49.662;8.448;2023-03-23T06:59:19;99987.88;;;13.64;90.10
37238;BME280;23129;49.662;8.448;2023-03-23T07:01:47;99990.47;;;13.65;89.99
37238;BME280;23129;49.662;8.448;2023-03-23T07:04:15;100007.97;;;13.66;90.00
37238;BME280;23129;49.662;8.448;2023-03-23T07:06:51;99992.16;;;13.66;90.00
37238;BME280;23129;49.662;8.448;2023-03-23T07:09:18;99986.88;;;13.66;89.77
37238;BME280;23129;49.662;8.448;2023-03-23T07:11:48;99992.16;;;13.66;89.67
37238;BME280;23129;49.662;8.448;2023-03-23T07:14:30;100009.84;;;13.64;88.98
37238;BME280;23129;49.662;8.448;2023-03-23T07:16:58;99989.50;;;13.66;89.04
37238;BME280;23129;49.662;8.448;2023-03-23T07:19:26;99993.00;;;13.67;89.34
37238;BME280;23129;49.662;8.448;2023-03-23T07:21:54;100001.84;;;13.66;89.20
37238;BME280;23129;49.662;8.448;2023-03-23T07:24:23;99970.22;;;13.66;89.25
37238;BME280;23129;49.662;8.448;2023-03-23T07:27:09;99982.59;;;13.64;89.19
37238;BME280;23129;49.662;8.448;2023-03-23T07:29:40;99978.38;;;13.61;89.19
37238;BME280;23129;49.662;8.448;2023-03-23T07:32:13;99990.09;;;13.54;90.09
37238;BME280;23129;49.662;8.448;2023-03-23T07:34:41;99988.31;;;13.55;89.65
37238;BME280;23129;49.662;8.448;2023-03-23T07:37:19;100003.28;;;13.54;89.75
37238;BME280;23129;49.662;8.448;2023-03-23T07:39:49;100015.56;;;13.55;89.88
37238;BME280;23129;49.662;8.448;2023-03-23T07:42:16;100034.75;;;13.57;89.50
37238;BME280;23129;49.662;8.448;2023-03-23T07:44:50;100015.41;;;13.58;88.93
37238;BME280;23129;49.662;8.448;2023-03-23T07:47:17;100021.53;;;13.59;89.22
37238;BME280;23129;49.662;8.448;2023-03-23T07:49:48;100013.53;;;13.60;89.19
37238;BME280;23129;49.662;8.448;2023-03-23T07:52:47;100022.38;;;13.59;89.23
37238;BME280;23129;49.662;8.448;2023-03-23T07:55:18;100015.41;;;13.58;89.42
37238;BME280;23129;49.662;8.448;2023-03-23T07:58:07;100005.63;;;13.60;89.64
37238;BME280;23129;49.662;8.448;2023-03-23T08:00:36;100008.25;;;13.60;89.46
37238;BME280;23129;49.662;8.448;2023-03-23T08:03:06;100003.00;;;13.60;89.25
37238;BME280;23129;49.662;8.448;2023-03-23T08:05:42;100016.97;;;13.62;89.55
37238;BME280;23129;49.662;8.448;2023-03-23T08:08:15;100027.56;;;13.61;89.52
37238;BME280;23129;49.662;8.448;2023-03-23T08:11:21;100031.81;;;13.63;89.64
37238;BME280;23129;49.662;8.448;2023-03-23T08:14:15;100031.81;;;13.63;89.56
37238;BME280;23129;49.662;8.448;2023-03-23T08:17:00;100034.56;;;13.62;90.05
37238;BME280;23129;49.662;8.448;2023-03-23T08:19:47;100038.03;;;13.62;90.13
37238;BME280;23129;49.662;8.448;2023-03-23T08:22:35;100041.59;;;13.61;90.35
37238;BME280;23129;49.662;8.448;2023-03-23T08:25:16;100048.59;;;13.62;90.55
37238;BME280;23129;49.662;8.448;2023-03-23T08:28:04;100044.25;;;13.61;90.44
37238;BME280;23129;49.662;8.448;2023-03-23T08:31:06;100042.50;;;13.60;90.53
37238;BME280;23129;49.662;8.448;2023-03-23T08:33:55;100062.69;;;13.61;90.60
37238;BME280;23129;49.662;8.448;2023-03-23T08:36:36;100045.81;;;13.65;90.98
37238;BME280;23129;49.662;8.448;2023-03-23T08:39:38;100058.88;;;13.67;90.63
37238;BME280;23129;49.662;8.448;2023-03-23T08:42:17;100057.00;;;13.70;90.73
37238;BME280;23129;49.662;8.448;2023-03-23T08:44:57;100058.63;;;13.73;90.83
37238;BME280;23129;49.662;8.448;2023-03-23T08:47:54;100057.59;;;13.76;91.22
37238;BME280;23129;49.662;8.448;2023-03-23T08:50:29;100063.53;;;13.81;91.21
37238;BME280;23129;49.662;8.448;2023-03-23T08:53:16;100074.78;;;13.84;91.22
37238;BME280;23129;49.662;8.448;2023-03-23T08:55:47;100086.03;;;13.88;90.57
37238;BME280;23129;49.662;8.448;2023-03-23T08:58:25;100072.63;;;13.92;90.03
37238;BME280;23129;49.662;8.448;2023-03-23T09:00:55;100078.59;;;13.96;90.45
37238;BME280;23129;49.662;8.448;2023-03-23T09:03:41;100104.69;;;14.02;89.72
37238;BME280;23129;49.662;8.448;2023-03-23T09:06:28;100078.09;;;14.07;89.65
37238;BME280;23129;49.662;8.448;2023-03-23T09:08:56;100089.16;;;14.15;89.95
37238;BME280;23129;49.662;8.448;2023-03-23T09:11:24;100086.22;;;14.21;88.73
37238;BME280;23129;49.662;8.448;2023-03-23T09:13:52;100085.97;;;14.26;88.76
37238;BME280;23129;49.662;8.448;2023-03-23T09:16:19;100090.94;;;14.32;88.72
37238;BME280;23129;49.662;8.448;2023-03-23T09:18:47;100103.06;;;14.36;88.22
37238;BME280;23129;49.662;8.448;2023-03-23T09:21:16;100115.31;;;14.37;87.84
37238;BME280;23129;49.662;8.448;2023-03-23T09:23:44;100093.22;;;14.39;87.71
37238;BME280;23129;49.662;8.448;2023-03-23T09:26:12;100093.06;;;14.43;87.88
37238;BME280;23129;49.662;8.448;2023-03-23T09:28:40;100109.59;;;14.46;87.94
37238;BME280;23129;49.662;8.448;2023-03-23T09:31:10;100112.09;;;14.49;87.37
37238;BME280;23129;49.662;8.448;2023-03-23T09:33:38;100114.72;;;14.49;87.52
37238;BME280;23129;49.662;8.448;2023-03-23T09:36:06;100112.91;;;14.51;87.48
37238;BME280;23129;49.662;8.448;2023-03-23T09:38:37;100124.31;;;14.52;87.17
37238;BME280;23129;49.662;8.448;2023-03-23T09:41:19;100121.69;;;14.50;87.14
37238;BME280;23129;49.662;8.448;2023-03-23T09:44:02;100123.59;;;14.48;87.19
37238;BME280;23129;49.662;8.448;2023-03-23T09:46:48;100121.69;;;14.50;87.54
37238;BME280;23129;49.662;8.448;2023-03-23T09:49:21;100137.13;;;14.59;87.10
37238;BME280;23129;49.662;8.448;2023-03-23T09:51:53;100110.41;;;14.66;86.75
37238;BME280;23129;49.662;8.448;2023-03-23T09:54:25;100114.22;;;14.77;86.63
37238;BME280;23129;49.662;8.448;2023-03-23T09:56:58;100102.34;;;14.86;86.67
37238;BME280;23129;49.662;8.448;2023-03-23T09:59:34;100123.25;;;14.91;86.19
37238;BME280;23129;49.662;8.448;2023-03-23T10:02:12;100103.19;;;14.87;86.12
37238;BME280;23129;49.662;8.448;2023-03-23T10:04:45;100120.22;;;14.81;86.34
37238;BME280;23129;49.662;8.448;2023-03-23T10:07:15;100113.53;;;14.74;85.70
37238;BME280;23129;49.662;8.448;2023-03-23T10:09:46;100117.41;;;14.67;86.29
37238;BME280;23129;49.662;8.448;2023-03-23T10:12:25;100096.47;;;14.64;85.77
37238;BME280;23129;49.662;8.448;2023-03-23T10:15:13;100095.19;;;14.71;86.18
37238;BME280;23129;49.662;8.448;2023-03-23T10:17:47;100084.81;;;14.85;85.89
37238;BME280;23129;49.662;8.448;2023-03-23T10:20:31;100084.16;;;14.97;85.90
37238;BME280;23129;49.662;8.448;2023-03-23T10:23:09;100084.00;;;15.00;85.18
37238;BME280;23129;49.662;8.448;2023-03-23T10:25:42;100075.13;;;15.01;85.20
37238;BME280;23129;49.662;8.448;2023-03-23T10:28:15;100098.16;;;14.99;85.46
37238;BME280;23129;49.662;8.448;2023-03-23T10:30:51;100086.75;;;14.99;85.95
37238;BME280;23129;49.662;8.448;2023-03-23T10:33:25;100092.09;;;14.97;86.25
37238;BME280;23129;49.662;8.448;2023-03-23T10:35:57;100101.19;;;14.92;86.22
37238;BME280;23129;49.662;8.448;2023-03-23T10:38:33;100096.22;;;14.86;86.57
37238;BME280;23129;49.662;8.448;2023-03-23T10:41:12;100094.88;;;14.77;86.75
37238;BME280;23129;49.662;8.448;2023-03-23T10:43:42;100087.13;;;14.74;86.82
37238;BME280;23129;49.662;8.448;2023-03-23T10:46:27;100093.03;;;14.61;86.71
37238;BME280;23129;49.662;8.448;2023-03-23T10:48:59;100090.53;;;14.58;86.61
37238;BME280;23129;49.662;8.448;2023-03-23T10:51:31;100098.78;;;14.52;86.85
37238;BME280;23129;49.662;8.448;2023-03-23T10:54:02;100093.50;;;14.52;87.05
37238;BME280;23129;49.662;8.448;2023-03-23T10:56:36;100104.16;;;14.49;87.20
37238;BME280;23129;49.662;8.448;2023-03-23T10:59:19;100106.03;;;14.47;87.69
37238;BME280;23129;49.662;8.448;2023-03-23T11:01:52;100119.22;;;14.47;87.24
37238;BME280;23129;49.662;8.448;2023-03-23T11:04:21;100108.66;;;14.47;87.31
37238;BME280;23129;49.662;8.448;2023-03-23T11:06:52;100109.44;;;14.49;87.56
37238;BME280;23129;49.662;8.448;2023-03-23T11:09:35;100114.44;;;14.55;87.51
37238;BME280;23129;49.662;8.448;2023-03-23T11:12:03;100116.00;;;14.59;86.48
37238;BME280;23129;49.662;8.448;2023-03-23T11:14:33;100122.00;;;14.63;86.69
37238;BME280;23129;49.662;8.448;2023-03-23T11:17:20;100111.34;;;14.65;86.23
37238;BME280;23129;49.662;8.448;2023-03-23T11:19:48;100108.56;;;14.68;86.33
37238;BME280;23129;49.662;8.448;2023-03-23T11:22:19;100098.78;;;14.70;86.16
37238;BME280;23129;49.662;8.448;2023-03-23T11:24:52;100107.56;;;14.70;86.48
37238;BME280;23129;49.662;8.448;2023-03-23T11:27:20;100106.41;;;14.76;86.85
37238;BME280;23129;49.662;8.448;2023-03-23T11:29:53;100111.53;;;14.79;87.25
37238;BME280;23129;49.662;8.448;2023-03-23T11:32:24;100105.28;;;14.80;86.83
37238;BME280;23129;49.662;8.448;2023-03-23T11:34:57;100126.34;;;14.81;86.83
37238;BME280;23129;49.662;8.448;2023-03-23T11:37:31;100115.84;;;14.80;86.68
37238;BME280;23129;49.662;8.448;2023-03-23T11:40:01;100127.22;;;14.82;86.82
37238;BME280;23129;49.662;8.448;2023-03-23T11:42:42;100108.72;;;14.82;87.17
37238;BME280;23129;49.662;8.448;2023-03-23T11:45:19;100102.50;;;14.83;87.29
37238;BME280;23129;49.662;8.448;2023-03-23T11:48:01;100099.09;;;14.81;87.42
37238;BME280;23129;49.662;8.448;2023-03-23T11:50:38;100095.84;;;14.76;87.50
37238;BME280;23129;49.662;8.448;2023-03-23T11:53:13;100100.56;;;14.69;88.16
37238;BME280;23129;49.662;8.448;2023-03-23T11:55:58;100110.41;;;14.66;88.58
37238;BME280;23129;49.662;8.448;2023-03-23T11:58:28;100105.28;;;14.63;88.84
37238;BME280;23129;49.662;8.448;2023-03-23T12:01:06;100105.44;;;14.59;89.23
37238;BME280;23129;49.662;8.448;2023-03-23T12:04:14;100099.41;;;14.57;89.88
37238;BME280;23129;49.662;8.448;2023-03-23T12:06:51;100097.47;;;14.61;89.87
37238;BME280;23129;49.662;8.448;2023-03-23T12:09:41;100091.94;;;14.66;90.08
37238;BME280;23129;49.662;8.448;2023-03-23T12:12:19;100099.41;;;14.75;89.65
37238;BME280;23129;49.662;8.448;2023-03-23T12:15:00;100074.25;;;14.85;90.07
37238;BME280;23129;49.662;8.448;2023-03-23T12:17:42;100073.69;;;14.96;89.60
37238;BME280;23129;49.662;8.448;2023-03-23T12:20:25;100067.50;;;15.13;89.28
37238;BME280;23129;49.662;8.448;2023-03-23T12:23:10;100062.81;;;15.35;88.89
37238;BME280;23129;49.662;8.448;2023-03-23T12:26:12;100062.47;;;15.57;88.09
37238;BME280;23129;49.662;8.448;2023-03-23T12:29:07;100054.00;;;15.68;87.40
37238;BME280;23129;49.662;8.448;2023-03-23T12:31:56;100052.72;;;15.75;86.63
37238;BME280;23129;49.662;8.448;2023-03-23T12:34:49;100044.25;;;15.84;86.36
37238;BME280;23129;49.662;8.448;2023-03-23T12:37:42;100024.50;;;15.91;85.52
37238;BME280;23129;49.662;8.448;2023-03-23T12:40:38;100029.25;;;16.01;85.16
37238;BME280;23129;49.662;8.448;2023-03-23T12:43:17;100024.09;;;16.13;84.11
37238;BME280;23129;49.662;8.448;2023-03-23T12:46:05;100025.38;;;16.22;83.45
37238;BME280;23129;49.662;8.448;2023-03-23T12:48:40;100003.06;;;16.26;82.39
37238;BME280;23129;49.662;8.448;2023-03-23T12:51:20;100017.44;;;16.22;81.97
37238;BME280;23129;49.662;8.448;2023-03-23T12:53:57;100021.88;;;16.22;82.07
37238;BME280;23129;49.662;8.448;2023-03-23T12:56:33;100014.78;;;16.22;81.43
37238;BME280;23129;49.662;8.448;2023-03-23T12:59:10;100019.78;;;16.27;80.60
37238;BME280;23129;49.662;8.448;2023-03-23T13:01:43;100029.00;;;16.35;80.01
37238;BME280;23129;49.662;8.448;2023-03-23T13:04:15;100055.59;;;16.48;79.83
37238;BME280;23129;49.662;8.448;2023-03-23T13:06:48;100018.84;;;16.58;79.02
37238;BME280;23129;49.662;8.448;2023-03-23T13:09:22;100028.13;;;16.65;79.35
37238;BME280;23129;49.662;8.448;2023-03-23T13:11:53;100012.16;;;16.66;78.90
37238;BME280;23129;49.662;8.448;2023-03-23T13:14:43;100038.91;;;16.62;78.84
37238;BME280;23129;49.662;8.448;2023-03-23T13:17:24;100022.59;;;16.54;78.90
37238;BME280;23129;49.662;8.448;2023-03-23T13:20:11;100003.69;;;16.46;78.78
37238;BME280;23129;49.662;8.448;2023-03-23T13:22:47;100023.44;;;16.40;79.16
37238;BME280;23129;49.662;8.448;2023-03-23T13:25:23;100023.69;;;16.35;78.87
37238;BME280;23129;49.662;8.448;2023-03-23T13:27:58;100025.00;;;16.28;79.54
37238;BME280;23129;49.662;8.448;2023-03-23T13:30:28;100019.13;;;16.23;79.77
37238;BME280;23129;49.662;8.448;2023-03-23T13:33:03;100032.63;;;16.18;79.51
37238;BME280;23129;49.662;8.448;2023-03-23T13:35:35;100014.38;;;16.14;80.10
37238;BME280;23129;49.662;8.448;2023-03-23T13:38:18;99991.69;;;16.10;79.94
37238;BME280;23129;49.662;8.448;2023-03-23T13:40:47;100009.91;;;16.14;79.92
37238;BME280;23129;49.662;8.448;2023-03-23T13:43:27;100015.88;;;16.18;79.24